1926 NOT_NAMED (1926040S15151)


IBTrACS version v04r00. Visit IBTrACS website for data access.
Please direct all questions to the IBTrACS Q and A forum

Storm track - Intensity - Wind Radii - Intensity Data - Source Data - All data

Summary Information

Storm ID 1926040S15151
Start Feb 8 23Z
End Feb 14 23Z
ATCF IDs
Track status Best track data.

Storm track plot

Map of storm track

Intensity plots

No Intensity information for this storm


Radial wind information

No radial wind information for this storm


Position and Intensity Table

BASIN ISO_TIME_________ NATURE LAT LON
degrees north degrees east
SP 1926-02-08 23:00:00 NR -14.90 151.30
SP 1926-02-09 00:00:00 NR -15.01 151.18
SP 03:00:00 NR -15.32 150.81
SP 06:00:00 NR -15.63 150.42
SP 09:00:00 NR -15.92 150.00
SP 11:00:00 NR -16.10 149.70
SP 12:00:00 NR -16.19 149.54
SP 15:00:00 NR -16.44 149.05
SP 18:00:00 NR -16.66 148.57
SP 21:00:00 NR -16.87 148.14
SP 23:00:00 NR -17.00 147.90
SP 1926-02-10 00:00:00 NR -17.06 147.80
SP 03:00:00 NR -17.23 147.58
SP 06:00:00 NR -17.40 147.43
SP 09:00:00 NR -17.57 147.34
SP 11:00:00 NR -17.70 147.30
SP 12:00:00 NR -17.78 147.27
SP 15:00:00 NR -18.04 147.18
SP 18:00:00 NR -18.31 147.14
SP 21:00:00 NR -18.56 147.16
SP 23:00:00 NR -18.70 147.20
SP 1926-02-11 00:00:00 NR -18.76 147.23
SP 03:00:00 NR -18.91 147.37
SP 06:00:00 NR -19.01 147.56
SP 09:00:00 NR -19.08 147.76
SP 11:00:00 NR -19.10 147.90
SP 12:00:00 NR -19.11 147.96
SP 15:00:00 NR -19.11 148.15
SP 18:00:00 NR -19.07 148.33
SP 21:00:00 NR -19.03 148.50
SP 23:00:00 NR -19.00 148.60
SP 1926-02-12 00:00:00 NR -18.99 148.64
SP 03:00:00 NR -18.97 148.76
SP 06:00:00 NR -18.94 148.86
SP 09:00:00 NR -18.92 148.95
SP 11:00:00 NR -18.90 149.00
SP 12:00:00 NR -18.89 149.03
SP 15:00:00 NR -18.87 149.10
SP 18:00:00 NR -18.84 149.17
SP 21:00:00 NR -18.82 149.25
SP 23:00:00 NR -18.80 149.30
SP 1926-02-13 00:00:00 NR -18.79 149.33
SP 03:00:00 NR -18.77 149.43
SP 06:00:00 NR -18.74 149.53
SP 09:00:00 NR -18.72 149.64
SP 11:00:00 NR -18.70 149.70
SP 12:00:00 NR -18.69 149.71
SP 15:00:00 NR -18.68 149.74
SP 18:00:00 NR -18.66 149.78
SP 21:00:00 NR -18.63 149.88
SP 23:00:00 NR -18.60 150.00
SP 1926-02-14 00:00:00 NR -18.58 150.09
SP 03:00:00 NR -18.50 150.43
SP 06:00:00 NR -18.41 150.85
SP 09:00:00 NR -18.34 151.30
SP 11:00:00 NR -18.30 151.60
SP 12:00:00 NR -18.29 151.75
SP 15:00:00 NR -18.27 152.16
SP 18:00:00 NR -18.27 152.56
SP 21:00:00 NR -18.29 152.95
SP 23:00:00 NR -18.30 153.20

Source Information

Agency Information
USA
TOKYO
CMA
HKO
NEWDELHI
REUNION
BOM
NADI
WELLINGTON
DS824
TD9636 cons_worldwide_trop_cyclone_18710101-19891231-006:Line=1588
TD9635
NEUMANN
MLC

All available IBTrACS Data

SEASON BASIN SUBBASIN ISO_TIME_________ NATURE LAT LON DIST2LAND LANDFALL IFLAG USA SSHS TD9636 LAT TD9636 LON TD9636 STAGE STORM SPEED STORM DIR
Year degrees north degrees east km km 1 degrees north degrees east kts degrees
1926 SP EA 1926-02-08 23:00:00 NR -14.90 151.30 480 480 __________O___ -1 -14.90 151.30 7 10 228
1926 SP EA 1926-02-09 00:00:00 NR -15.01 151.18 489 487 __________P___ -1 -15.01 151.18 7 10 229
1926 SP EA 03:00:00 NR -15.32 150.81 516 500 __________P___ -1 -15.32 150.81 7 10 230
1926 SP EA 06:00:00 NR -15.63 150.42 500 448 __________P___ -1 -15.63 150.42 7 10 232
1926 SP EA 09:00:00 NR -15.92 150.00 448 410 __________P___ -1 -15.92 150.00 7 10 236
1926 SP EA 11:00:00 NR -16.10 149.70 410 396 __________O___ -1 -16.10 149.70 7 10 238
1926 SP EA 12:00:00 NR -16.19 149.54 386 338 __________P___ -1 -16.19 149.54 7 11 242
1926 SP EA 15:00:00 NR -16.44 149.05 338 280 __________P___ -1 -16.44 149.05 7 10 243
1926 SP EA 18:00:00 NR -16.66 148.57 277 230 __________P___ -1 -16.66 148.57 7 10 244
1926 SP EA 21:00:00 NR -16.87 148.14 219 196 __________P___ -1 -16.87 148.14 7 9 242
1926 SP EA 23:00:00 NR -17.00 147.90 196 183 __________O___ -1 -17.00 147.90 7 7 239
1926 SP EA 1926-02-10 00:00:00 NR -17.06 147.80 183 160 __________P___ -1 -17.06 147.80 7 6 233
1926 SP EA 03:00:00 NR -17.23 147.58 160 137 __________P___ -1 -17.23 147.58 7 5 227
1926 SP EA 06:00:00 NR -17.40 147.43 137 127 __________P___ -1 -17.40 147.43 7 4 214
1926 SP EA 09:00:00 NR -17.57 147.34 127 127 __________P___ -1 -17.57 147.34 7 4 203
1926 SP EA 11:00:00 NR -17.70 147.30 127 127 __________O___ -1 -17.70 147.30 7 4 198
1926 SP EA 12:00:00 NR -17.78 147.27 127 116 __________P___ -1 -17.78 147.27 7 5 198
1926 SP EA 15:00:00 NR -18.04 147.18 116 90 __________P___ -1 -18.04 147.18 7 5 192
1926 SP EA 18:00:00 NR -18.31 147.14 90 84 __________P___ -1 -18.31 147.14 7 5 0
1926 SP EA 21:00:00 NR -18.56 147.16 79 69 __________P___ -1 -18.56 147.16 7 5 171
1926 SP EA 23:00:00 NR -18.70 147.20 69 59 __________O___ -1 -18.70 147.20 7 4 160
1926 SP EA 1926-02-11 00:00:00 NR -18.76 147.23 59 54 __________P___ -1 -18.76 147.23 7 4 142
1926 SP EA 03:00:00 NR -18.91 147.37 55 44 __________P___ -1 -18.91 147.37 7 4 130
1926 SP EA 06:00:00 NR -19.01 147.56 49 46 __________P___ -1 -19.01 147.56 7 4 115
1926 SP EA 09:00:00 NR -19.08 147.76 53 53 __________P___ -1 -19.08 147.76 7 4 105
1926 SP EA 11:00:00 NR -19.10 147.90 61 61 __________O___ -1 -19.10 147.90 7 4 99
1926 SP EA 12:00:00 NR -19.11 147.96 68 68 __________P___ -1 -19.11 147.96 7 4 91
1926 SP EA 15:00:00 NR -19.11 148.15 77 77 __________P___ -1 -19.11 148.15 7 4 85
1926 SP EA 18:00:00 NR -19.07 148.33 94 94 __________P___ -1 -19.07 148.33 7 3 77
1926 SP EA 21:00:00 NR -19.03 148.50 113 113 __________P___ -1 -19.03 148.50 7 3 74
1926 SP EA 23:00:00 NR -19.00 148.60 116 116 __________O___ -1 -19.00 148.60 7 3 74
1926 SP EA 1926-02-12 00:00:00 NR -18.99 148.64 116 116 __________P___ -1 -18.99 148.64 7 2 78
1926 SP EA 03:00:00 NR -18.97 148.76 123 123 __________P___ -1 -18.97 148.76 7 2 76
1926 SP EA 06:00:00 NR -18.94 148.86 138 138 __________P___ -1 -18.94 148.86 7 2 74
1926 SP EA 09:00:00 NR -18.92 148.95 138 138 __________P___ -1 -18.92 148.95 7 2 72
1926 SP EA 11:00:00 NR -18.90 149.00 143 143 __________O___ -1 -18.90 149.00 7 2 72
1926 SP EA 12:00:00 NR -18.89 149.03 143 143 __________P___ -1 -18.89 149.03 7 2 71
1926 SP EA 15:00:00 NR -18.87 149.10 148 148 __________P___ -1 -18.87 149.10 7 1 70
1926 SP EA 18:00:00 NR -18.84 149.17 164 164 __________P___ -1 -18.84 149.17 7 1 70
1926 SP EA 21:00:00 NR -18.82 149.25 164 164 __________P___ -1 -18.82 149.25 7 2 71
1926 SP EA 23:00:00 NR -18.80 149.30 170 170 __________O___ -1 -18.80 149.30 7 2 72
1926 SP EA 1926-02-13 00:00:00 NR -18.79 149.33 170 170 __________P___ -1 -18.79 149.33 7 2 75
1926 SP EA 03:00:00 NR -18.77 149.43 176 176 __________P___ -1 -18.77 149.43 7 2 76
1926 SP EA 06:00:00 NR -18.74 149.53 192 192 __________P___ -1 -18.74 149.53 7 2 76
1926 SP EA 09:00:00 NR -18.72 149.64 197 197 __________P___ -1 -18.72 149.64 7 2 75
1926 SP EA 11:00:00 NR -18.70 149.70 202 202 __________O___ -1 -18.70 149.70 7 2 71
1926 SP EA 12:00:00 NR -18.69 149.71 202 202 __________P___ -1 -18.69 149.71 7 1 55
1926 SP EA 15:00:00 NR -18.68 149.74 202 202 __________P___ -1 -18.68 149.74 7 1 57
1926 SP EA 18:00:00 NR -18.66 149.78 207 207 __________P___ -1 -18.66 149.78 7 1 70
1926 SP EA 21:00:00 NR -18.63 149.88 222 222 __________P___ -1 -18.63 149.88 7 3 75
1926 SP EA 23:00:00 NR -18.60 150.00 228 228 __________O___ -1 -18.60 150.00 7 4 76
1926 SP EA 1926-02-14 00:00:00 NR -18.58 150.09 233 233 __________P___ -1 -18.58 150.09 7 6 76
1926 SP EA 03:00:00 NR -18.50 150.43 262 262 __________P___ -1 -18.50 150.43 7 7 77
1926 SP EA 06:00:00 NR -18.41 150.85 298 298 __________P___ -1 -18.41 150.85 7 8 79
1926 SP EA 09:00:00 NR -18.34 151.30 344 344 __________P___ -1 -18.34 151.30 7 9 81
1926 SP EA 11:00:00 NR -18.30 151.60 369 369 __________O___ -1 -18.30 151.60 7 9 83
1926 SP EA 12:00:00 NR -18.29 151.75 377 377 __________P___ -1 -18.29 151.75 7 8 86
1926 SP EA 15:00:00 NR -18.27 152.16 421 421 __________P___ -1 -18.27 152.16 7 8 89
1926 SP EA 18:00:00 NR -18.27 152.56 457 457 __________P___ -1 -18.27 152.56 7 7 92
1926 SP EA 21:00:00 NR -18.29 152.95 484 484 __________P___ -1 -18.29 152.95 7 7 93
1926 SP EA 23:00:00 NR -18.30 153.20 513 __________O___ -1 -18.30 153.20 7 7 94